createdAt,value
2018-02-09T00:01:24.090Z,121.80
2018-02-09T00:03:51.637Z,106.83
2018-02-09T00:06:19.163Z,104.17
2018-02-09T00:08:47.463Z,112.53
2018-02-09T00:11:14.993Z,92.00
2018-02-09T00:13:42.504Z,94.13
2018-02-09T00:16:10.016Z,90.77
2018-02-09T00:18:37.662Z,87.13
2018-02-09T00:21:05.186Z,89.07
2018-02-09T00:23:32.702Z,95.20
2018-02-09T00:26:00.239Z,83.80
2018-02-09T00:28:27.745Z,89.50
2018-02-09T00:30:55.312Z,89.07
2018-02-09T00:33:22.858Z,89.03
2018-02-09T00:35:50.385Z,95.27
2018-02-09T00:38:17.934Z,89.90
2018-02-09T00:40:45.474Z,96.80
2018-02-09T00:43:13.738Z,95.27
2018-02-09T00:45:41.248Z,90.83
2018-02-09T00:48:08.882Z,96.50
2018-02-09T00:50:37.184Z,93.03
2018-02-09T00:53:04.690Z,92.97
2018-02-09T00:55:32.222Z,98.43
2018-02-09T00:57:59.751Z,106.33
2018-02-09T01:00:28.034Z,117.30
2018-02-09T01:02:56.437Z,108.47
2018-02-09T01:05:23.943Z,101.70
2018-02-09T01:07:51.463Z,101.93
2018-02-09T01:10:18.997Z,102.40
2018-02-09T01:12:47.265Z,111.07
2018-02-09T01:15:14.788Z,112.57
2018-02-09T01:17:42.322Z,101.47
2018-02-09T01:20:09.841Z,96.50
2018-02-09T01:22:37.354Z,109.77
2018-02-09T01:25:04.884Z,104.10
2018-02-09T01:27:32.407Z,103.37
2018-02-09T01:29:59.907Z,94.70
2018-02-09T01:32:27.441Z,105.27
2018-02-09T01:34:54.952Z,104.07
2018-02-09T01:37:23.236Z,105.87
2018-02-09T01:39:51.632Z,106.90
2018-02-09T01:42:19.146Z,95.00
2018-02-09T01:44:46.656Z,95.13
2018-02-09T01:47:14.312Z,97.17
2018-02-09T01:49:42.600Z,97.13
2018-02-09T01:52:10.104Z,92.47
2018-02-09T01:54:37.728Z,94.13
2018-02-09T01:57:05.244Z,104.00
2018-02-09T01:59:32.760Z,104.27
2018-02-09T02:02:00.301Z,109.00
2018-02-09T02:04:28.604Z,104.57
2018-02-09T02:06:56.122Z,103.53
2018-02-09T02:09:23.662Z,111.20
2018-02-09T02:11:51.164Z,102.67
2018-02-09T02:14:19.445Z,105.77
2018-02-09T02:16:47.741Z,106.03
2018-02-09T02:19:16.007Z,95.07
2018-02-09T02:21:44.279Z,108.67
2018-02-09T02:24:11.827Z,95.50
2018-02-09T02:26:39.327Z,97.20
2018-02-09T02:29:06.860Z,102.43
2018-02-09T02:31:34.405Z,106.77
2018-02-09T02:34:02.692Z,110.97
2018-02-09T02:36:30.209Z,101.53
2018-02-09T02:38:57.825Z,97.97
2018-02-09T02:41:26.110Z,95.97
2018-02-09T02:43:53.621Z,101.90
2018-02-09T02:46:21.148Z,87.30
2018-02-09T02:48:48.684Z,88.63
2018-02-09T02:51:16.213Z,91.77
2018-02-09T02:53:43.753Z,92.30
2018-02-09T02:56:12.022Z,96.33
2018-02-09T02:58:39.532Z,88.13
2018-02-09T03:01:07.184Z,102.07
2018-02-09T03:03:34.713Z,103.30
2018-02-09T03:06:02.261Z,95.50
2018-02-09T03:08:29.809Z,92.10
2018-02-09T03:10:57.320Z,102.40
2018-02-09T03:13:25.589Z,96.17
2018-02-09T03:15:53.121Z,100.13
2018-02-09T03:18:20.646Z,87.73
2018-02-09T03:20:48.165Z,90.47
2018-02-09T03:23:15.685Z,93.00
2018-02-09T03:25:43.194Z,100.40
2018-02-09T03:28:10.697Z,91.07
2018-02-09T03:30:38.232Z,94.10
2018-02-09T03:33:06.513Z,90.33
2018-02-09T03:35:34.787Z,95.47
2018-02-09T03:38:03.060Z,90.47
2018-02-09T03:40:30.577Z,94.03
2018-02-09T03:42:58.117Z,86.87
2018-02-09T03:45:25.716Z,86.80
2018-02-09T03:47:53.221Z,94.67
2018-02-09T03:50:21.533Z,89.80
2018-02-09T03:52:49.039Z,96.30
2018-02-09T03:55:16.539Z,89.30
2018-02-09T03:57:44.838Z,82.43
2018-02-09T04:00:12.350Z,93.80
2018-02-09T04:02:39.865Z,93.93
2018-02-09T04:05:07.401Z,85.30
2018-02-09T04:07:35.678Z,91.10
2018-02-09T04:10:03.196Z,85.47
2018-02-09T04:12:30.820Z,90.47
2018-02-09T04:14:59.113Z,91.60
2018-02-09T04:17:26.633Z,93.20
2018-02-09T04:19:54.272Z,94.87
2018-02-09T04:22:21.788Z,93.87
2018-02-09T04:24:50.075Z,91.60
2018-02-09T04:27:18.376Z,100.27
2018-02-09T04:29:45.886Z,92.77
2018-02-09T04:32:13.400Z,87.80
2018-02-09T04:34:40.931Z,85.77
2018-02-09T04:37:08.440Z,96.93
2018-02-09T04:39:35.946Z,95.53
2018-02-09T04:42:03.479Z,97.63
2018-02-09T04:44:30.985Z,98.03
2018-02-09T04:46:59.260Z,91.30
2018-02-09T04:49:26.813Z,92.50
2018-02-09T04:51:54.321Z,100.90
2018-02-09T04:54:21.892Z,94.23
2018-02-09T04:56:50.165Z,97.13
2018-02-09T04:59:17.674Z,92.57
2018-02-09T05:01:45.192Z,98.73
2018-02-09T05:04:12.832Z,102.30
2018-02-09T05:06:41.109Z,96.43
2018-02-09T05:09:09.389Z,96.13
2018-02-09T05:11:37.700Z,96.07
2018-02-09T05:14:05.207Z,101.20
2018-02-09T05:16:32.707Z,92.57
2018-02-09T05:19:01.016Z,98.23
2018-02-09T05:21:28.550Z,94.53
2018-02-09T05:23:56.825Z,89.23
2018-02-09T05:26:25.132Z,99.10
2018-02-09T05:28:52.640Z,94.73
2018-02-09T05:31:20.165Z,104.57
2018-02-09T05:33:47.723Z,111.23
2018-02-09T05:36:15.243Z,118.43
2018-02-09T05:38:42.766Z,134.77
2018-02-09T05:41:10.298Z,123.23
2018-02-09T05:43:38.596Z,138.07
2018-02-09T05:46:06.103Z,135.60
2018-02-09T05:48:33.653Z,132.63
2018-02-09T05:51:01.174Z,128.57
2018-02-09T05:53:28.691Z,117.53
2018-02-09T05:55:56.219Z,131.40
2018-02-09T05:58:23.746Z,129.97
2018-02-09T06:00:52.041Z,124.97
2018-02-09T06:03:19.590Z,124.50
2018-02-09T06:05:47.874Z,133.37
2018-02-09T06:08:16.148Z,128.47
2018-02-09T06:10:44.464Z,129.10
2018-02-09T06:13:11.997Z,114.67
2018-02-09T06:15:40.298Z,116.60
2018-02-09T06:18:07.836Z,130.20
2018-02-09T06:20:36.128Z,106.07
2018-02-09T06:23:04.412Z,104.07
2018-02-09T06:25:32.738Z,104.27
2018-02-09T06:28:00.272Z,98.20
2018-02-09T06:30:28.691Z,106.43
2018-02-09T06:32:56.241Z,105.53
2018-02-09T06:35:23.774Z,122.27
2018-02-09T06:37:51.296Z,113.77
2018-02-09T06:40:18.854Z,117.70
2018-02-09T06:42:46.385Z,106.13
2018-02-09T06:45:13.912Z,108.17
2018-02-09T06:47:42.232Z,99.40
2018-02-09T06:50:09.744Z,105.87
2018-02-09T06:52:38.028Z,105.07
2018-02-09T06:55:05.561Z,102.33
2018-02-09T06:57:33.102Z,105.00
2018-02-09T07:00:00.631Z,105.80
2018-02-09T07:02:28.278Z,108.90
2018-02-09T07:04:55.810Z,107.47
2018-02-09T07:07:23.331Z,111.13
2018-02-09T07:09:50.884Z,102.17
2018-02-09T07:12:19.183Z,111.93
2018-02-09T07:14:46.698Z,115.97
2018-02-09T07:17:14.264Z,108.87
2018-02-09T07:19:41.804Z,117.30
2018-02-09T07:22:09.363Z,108.60
2018-02-09T07:24:36.920Z,108.17
2018-02-09T07:27:04.450Z,115.57
2018-02-09T07:29:32.728Z,109.70
2018-02-09T07:32:01.132Z,99.37
2018-02-09T07:34:28.652Z,107.83
2018-02-09T07:36:56.221Z,102.93
2018-02-09T07:39:23.786Z,98.70
2018-02-09T07:41:51.364Z,103.40
2018-02-09T07:44:19.678Z,94.93
2018-02-09T07:46:47.247Z,101.87
2018-02-09T07:49:14.780Z,102.87
2018-02-09T07:51:43.056Z,93.40
2018-02-09T07:54:11.428Z,100.90
2018-02-09T07:56:38.942Z,105.07
2018-02-09T07:59:06.457Z,114.57
2018-02-09T08:01:34.786Z,138.37
2018-02-09T08:04:02.308Z,136.27
2018-02-09T08:06:30.610Z,126.20
2018-02-09T08:08:58.148Z,124.80
2018-02-09T08:11:26.430Z,109.37
2018-02-09T08:13:54.732Z,108.23
2018-02-09T08:16:22.235Z,99.57
2018-02-09T08:18:49.763Z,93.83
2018-02-09T08:21:17.324Z,87.87
2018-02-09T08:23:44.831Z,83.63
2018-02-09T08:26:12.333Z,88.70
2018-02-09T08:28:40.634Z,80.20
2018-02-09T08:31:08.158Z,81.40
2018-02-09T08:33:35.683Z,89.87
2018-02-09T08:36:03.233Z,93.37
2018-02-09T08:38:30.749Z,89.13
2018-02-09T08:40:58.276Z,100.90
2018-02-09T08:43:25.820Z,102.20
2018-02-09T08:45:53.339Z,107.97
2018-02-09T08:48:21.628Z,121.20
2018-02-09T08:50:49.923Z,117.27
2018-02-09T08:53:18.214Z,104.97
2018-02-09T08:55:45.716Z,106.20
2018-02-09T08:58:13.267Z,120.43
2018-02-09T09:00:40.797Z,112.07
2018-02-09T09:03:08.319Z,110.43
2018-02-09T09:05:35.874Z,114.90
2018-02-09T09:08:04.192Z,124.40
2018-02-09T09:10:32.461Z,114.10
2018-02-09T09:13:00.039Z,108.43
2018-02-09T09:15:28.330Z,111.83
2018-02-09T09:17:55.889Z,118.50
2018-02-09T09:20:24.284Z,109.53
2018-02-09T09:22:51.792Z,145.20
2018-02-09T09:25:19.329Z,104.93
2018-02-09T09:27:46.894Z,107.67
2018-02-09T09:30:14.424Z,115.80
2018-02-09T09:32:42.709Z,108.83
2018-02-09T09:35:10.236Z,94.23
2018-02-09T09:37:37.751Z,104.40
2018-02-09T09:40:05.260Z,104.13
2018-02-09T09:42:32.889Z,97.87
2018-02-09T09:45:00.402Z,107.87
2018-02-09T09:47:27.912Z,107.97
2018-02-09T09:49:55.447Z,110.83
2018-02-09T09:52:23.761Z,117.13
2018-02-09T09:54:51.306Z,106.20
2018-02-09T09:57:18.867Z,115.57
2018-02-09T09:59:46.388Z,117.13
2018-02-09T10:02:25.957Z,117.23
2018-02-09T10:04:54.291Z,128.97
2018-02-09T10:07:21.821Z,139.90
2018-02-09T10:09:49.366Z,132.40
2018-02-09T10:12:17.669Z,127.70
2018-02-09T10:14:45.184Z,116.93
2018-02-09T10:17:12.767Z,119.00
2018-02-09T10:19:41.057Z,128.47
2018-02-09T10:22:08.613Z,118.60
2018-02-09T10:24:36.934Z,112.57
2018-02-09T10:27:04.454Z,116.40
2018-02-09T10:29:32.731Z,116.83
2018-02-09T10:32:01.050Z,111.03
2018-02-09T10:34:28.574Z,117.30
2018-02-09T10:36:56.903Z,136.87
2018-02-09T10:39:24.449Z,123.50
2018-02-09T10:41:51.971Z,126.43
2018-02-09T10:44:19.505Z,129.40
2018-02-09T10:46:47.066Z,129.93
2018-02-09T10:49:14.573Z,114.57
2018-02-09T10:51:42.869Z,121.53
2018-02-09T10:54:10.429Z,106.47
2018-02-09T10:56:37.952Z,92.77
2018-02-09T10:59:05.534Z,97.83
2018-02-09T11:01:36.733Z,99.37
2018-02-09T11:04:04.287Z,79.53
2018-02-09T11:06:31.830Z,62.77
2018-02-09T11:08:59.380Z,61.03
2018-02-09T11:11:27.678Z,60.77
2018-02-09T11:13:55.196Z,69.97
2018-02-09T11:16:23.512Z,65.80
2018-02-09T11:18:51.815Z,57.60
2018-02-09T11:21:19.326Z,57.83
2018-02-09T11:23:46.888Z,58.80
2018-02-09T11:26:14.508Z,59.50
2018-02-09T11:28:42.040Z,65.57
2018-02-09T11:31:09.565Z,67.90
2018-02-09T11:33:37.135Z,47.93
2018-02-09T11:36:04.665Z,56.37
2018-02-09T11:38:32.364Z,69.50
2018-02-09T11:40:59.900Z,73.53
2018-02-09T11:43:27.537Z,81.57
2018-02-09T11:45:55.097Z,85.80
2018-02-09T11:48:23.368Z,83.87
2018-02-09T11:50:50.876Z,85.97
2018-02-09T11:53:18.433Z,94.93
2018-02-09T11:55:45.945Z,86.43
2018-02-09T11:58:13.484Z,75.17
2018-02-09T12:00:41.058Z,102.23
2018-02-09T12:03:08.638Z,67.97
2018-02-09T12:05:36.160Z,77.43
2018-02-09T12:08:03.793Z,79.97
2018-02-09T12:10:32.123Z,67.20
2018-02-09T12:12:59.672Z,76.00
2018-02-09T12:15:27.216Z,79.03
2018-02-09T12:17:54.754Z,73.93
2018-02-09T12:20:23.064Z,72.50
2018-02-09T12:22:50.622Z,81.93
2018-02-09T12:25:18.158Z,83.73
2018-02-09T12:27:46.474Z,107.50
2018-02-09T12:30:14.021Z,82.00
2018-02-09T12:32:42.301Z,78.13
2018-02-09T12:35:10.599Z,89.30
2018-02-09T12:37:38.135Z,75.20
2018-02-09T12:40:06.527Z,80.53
2018-02-09T12:42:34.199Z,78.70
2018-02-09T12:45:02.076Z,79.13
2018-02-09T12:47:30.036Z,81.07
2018-02-09T12:49:58.354Z,80.20
2018-02-09T12:52:25.874Z,95.87
2018-02-09T12:54:54.157Z,80.87
2018-02-09T12:57:22.545Z,74.87
2018-02-09T12:59:50.835Z,72.33
2018-02-09T13:02:18.364Z,73.70
2018-02-09T13:04:45.913Z,80.80
2018-02-09T13:07:13.444Z,76.60
2018-02-09T13:09:40.971Z,78.17
2018-02-09T13:12:09.405Z,82.07
2018-02-09T13:14:48.907Z,76.03
2018-02-09T13:17:16.451Z,94.77
2018-02-09T13:19:44.762Z,95.10
2018-02-09T13:22:35.941Z,94.83
2018-02-09T13:25:04.224Z,109.33
2018-02-09T13:27:32.528Z,102.90
2018-02-09T13:30:00.117Z,112.03
2018-02-09T13:32:39.702Z,106.40
2018-02-09T13:35:08.001Z,104.83
2018-02-09T13:37:35.522Z,104.27
2018-02-09T13:40:03.041Z,95.33
2018-02-09T13:42:30.583Z,104.30
2018-02-09T13:44:58.874Z,99.53
2018-02-09T13:47:26.405Z,100.73
2018-02-09T13:49:54.740Z,93.23
2018-02-09T13:52:22.248Z,101.30
2018-02-09T13:54:49.777Z,96.70
2018-02-09T13:57:17.319Z,97.10
2018-02-09T13:59:44.834Z,103.67
2018-02-09T14:02:12.362Z,98.13
2018-02-09T14:04:39.903Z,110.73
2018-02-09T14:07:07.494Z,107.23
2018-02-09T14:09:35.012Z,103.07
2018-02-09T14:12:03.325Z,116.80
2018-02-09T14:14:30.856Z,131.80
2018-02-09T14:16:59.161Z,118.70
2018-02-09T14:19:26.720Z,120.03
2018-02-09T14:21:54.239Z,118.57
2018-02-09T14:24:21.764Z,135.30
2018-02-09T14:26:49.345Z,133.83
2018-02-09T14:29:16.890Z,121.37
2018-02-09T14:31:44.411Z,121.10
2018-02-09T14:34:12.720Z,115.43
2018-02-09T14:36:40.287Z,121.50
2018-02-09T14:39:07.829Z,126.83
2018-02-09T14:41:36.174Z,148.37
2018-02-09T14:44:03.711Z,154.07
2018-02-09T14:46:31.242Z,165.97
2018-02-09T14:48:59.571Z,165.53
2018-02-09T14:51:27.101Z,176.30
2018-02-09T14:53:54.650Z,177.53
2018-02-09T14:56:22.278Z,172.27
2018-02-09T14:58:49.830Z,168.00
2018-02-09T15:01:17.366Z,172.13
2018-02-09T15:03:44.944Z,151.77
2018-02-09T15:06:12.463Z,136.77
2018-02-09T15:08:40.763Z,138.60
2018-02-09T15:11:08.388Z,137.83
2018-02-09T15:13:35.918Z,122.83
2018-02-09T15:16:03.457Z,129.50
2018-02-09T15:18:31.010Z,153.80
2018-02-09T15:20:58.548Z,132.73
2018-02-09T15:23:26.861Z,152.03
2018-02-09T15:25:54.430Z,139.97
2018-02-09T15:28:21.941Z,141.40
2018-02-09T15:30:49.465Z,142.13
2018-02-09T15:33:17.026Z,142.47
2018-02-09T15:35:44.624Z,157.57
2018-02-09T15:38:12.190Z,159.07
2018-02-09T15:40:39.771Z,151.03
2018-02-09T15:43:07.303Z,168.70
2018-02-09T15:45:34.859Z,173.60
2018-02-09T15:48:02.530Z,173.77
2018-02-09T15:50:30.065Z,166.87
2018-02-09T15:52:57.625Z,175.63
2018-02-09T15:55:25.202Z,182.77
2018-02-09T15:57:52.738Z,183.17
2018-02-09T16:00:21.049Z,163.20
2018-02-09T16:02:48.598Z,155.63
2018-02-09T16:05:16.122Z,150.53
2018-02-09T16:07:43.634Z,146.30
2018-02-09T16:10:11.200Z,121.20
2018-02-09T16:12:38.729Z,141.63
2018-02-09T16:15:07.040Z,135.63
2018-02-09T16:17:34.675Z,132.77
2018-02-09T16:20:02.968Z,136.23
2018-02-09T16:22:31.276Z,137.37
2018-02-09T16:24:58.824Z,154.40
2018-02-09T16:27:26.347Z,166.17
2018-02-09T16:29:53.918Z,162.53
2018-02-09T16:32:21.504Z,147.67
2018-02-09T16:34:49.795Z,143.03
2018-02-09T16:37:17.329Z,145.53
2018-02-09T16:39:44.894Z,138.17
2018-02-09T16:42:12.463Z,131.60
2018-02-09T16:44:39.981Z,137.03
2018-02-09T16:47:07.521Z,145.73
2018-02-09T16:49:35.060Z,144.40
2018-02-09T16:52:03.342Z,141.83
2018-02-09T16:54:31.654Z,160.27
2018-02-09T16:56:59.200Z,174.43
2018-02-09T16:59:27.498Z,171.20
2018-02-09T17:01:55.064Z,180.50
2018-02-09T17:04:22.587Z,187.47
2018-02-09T17:06:50.906Z,188.90
2018-02-09T17:09:18.463Z,178.27
2018-02-09T17:11:45.975Z,179.63
2018-02-09T17:14:13.537Z,189.67
2018-02-09T17:16:41.103Z,186.83
2018-02-09T17:19:08.622Z,178.37
2018-02-09T17:21:36.182Z,174.20
2018-02-09T17:24:03.850Z,173.87
2018-02-09T17:26:31.368Z,182.97
2018-02-09T17:28:58.892Z,165.63
2018-02-09T17:31:26.446Z,187.50
2018-02-09T17:33:53.984Z,195.33
2018-02-09T17:36:22.271Z,182.83
2018-02-09T17:38:49.820Z,180.13
2018-02-09T17:41:18.112Z,191.33
2018-02-09T17:43:46.392Z,177.43
2018-02-09T17:46:14.762Z,181.03
2018-02-09T17:48:43.052Z,195.47
2018-02-09T17:51:11.372Z,184.33
2018-02-09T17:53:38.914Z,195.87
2018-02-09T17:56:06.429Z,203.93
2018-02-09T17:58:33.963Z,203.87
2018-02-09T18:01:01.520Z,208.77
2018-02-09T18:03:29.081Z,252.53
2018-02-09T18:05:56.627Z,278.33
2018-02-09T18:08:24.330Z,261.17
2018-02-09T18:10:51.872Z,266.77
2018-02-09T18:13:19.430Z,288.50
2018-02-09T18:15:47.036Z,265.27
2018-02-09T18:18:14.568Z,259.73
2018-02-09T18:20:42.119Z,226.30
2018-02-09T18:23:09.811Z,256.73
2018-02-09T18:25:37.358Z,248.90
2018-02-09T18:28:04.889Z,269.37
2018-02-09T18:30:33.229Z,216.43
2018-02-09T18:33:00.843Z,215.77
2018-02-09T18:35:29.162Z,215.23
2018-02-09T18:37:56.811Z,219.20
2018-02-09T18:40:24.403Z,216.20
2018-02-09T18:42:51.923Z,200.83
2018-02-09T18:45:19.476Z,216.93
2018-02-09T18:47:47.791Z,208.80
2018-02-09T18:50:15.305Z,199.93
2018-02-09T18:52:42.876Z,200.50
2018-02-09T18:55:11.194Z,200.47
2018-02-09T18:57:38.728Z,197.30
2018-02-09T19:00:07.057Z,205.07
2018-02-09T19:02:34.624Z,210.60
2018-02-09T19:05:02.161Z,201.63
2018-02-09T19:07:29.740Z,217.37
2018-02-09T19:09:57.288Z,217.77
2018-02-09T19:12:24.819Z,211.90
2018-02-09T19:14:53.146Z,205.17
2018-02-09T19:17:20.711Z,218.77
2018-02-09T19:19:48.291Z,212.47
2018-02-09T19:22:15.846Z,211.03
2018-02-09T19:24:43.417Z,211.07
2018-02-09T19:27:10.968Z,216.43
2018-02-09T19:29:38.567Z,210.50
2018-02-09T19:32:06.092Z,207.77
2018-02-09T19:34:33.659Z,216.33
2018-02-09T19:37:01.244Z,211.83
2018-02-09T19:39:28.799Z,222.63
2018-02-09T19:41:56.364Z,221.33
2018-02-09T19:44:23.922Z,236.87
2018-02-09T19:46:51.492Z,224.40
2018-02-09T19:49:19.026Z,234.63
2018-02-09T19:51:46.601Z,230.23
2018-02-09T19:54:14.231Z,238.57
2018-02-09T19:56:42.544Z,229.63
2018-02-09T19:59:10.109Z,236.50
2018-02-09T20:01:37.648Z,232.83
2018-02-09T20:04:05.969Z,242.60
2018-02-09T20:06:33.531Z,237.87
2018-02-09T20:09:01.088Z,256.37
2018-02-09T20:11:28.661Z,272.80
2018-02-09T20:13:56.303Z,258.03
2018-02-09T20:16:23.895Z,269.80
2018-02-09T20:18:51.450Z,272.20
2018-02-09T20:21:19.080Z,277.20
2018-02-09T20:23:47.421Z,290.40
2018-02-09T20:26:14.958Z,275.97
2018-02-09T20:28:42.539Z,274.53
2018-02-09T20:31:10.092Z,288.77
2018-02-09T20:33:37.660Z,270.27
2018-02-09T20:36:05.225Z,265.07
2018-02-09T20:38:32.801Z,261.00
2018-02-09T20:41:00.343Z,262.77
2018-02-09T20:43:27.927Z,279.60
2018-02-09T20:45:55.471Z,270.17
2018-02-09T20:48:23.061Z,268.53
2018-02-09T20:50:50.792Z,270.83
2018-02-09T20:53:18.348Z,270.03
2018-02-09T20:55:45.959Z,285.40
2018-02-09T20:58:13.615Z,269.87
2018-02-09T21:00:41.148Z,272.67
2018-02-09T21:03:08.723Z,280.67
2018-02-09T21:05:36.280Z,287.87
2018-02-09T21:08:03.830Z,274.33
2018-02-09T21:10:31.394Z,291.40
2018-02-09T21:12:58.993Z,282.07
2018-02-09T21:15:26.545Z,283.80
2018-02-09T21:17:54.072Z,293.67
2018-02-09T21:20:22.488Z,299.37
2018-02-09T21:22:50.056Z,308.80
2018-02-09T21:25:17.589Z,316.23
2018-02-09T21:27:45.987Z,309.63
2018-02-09T21:30:13.542Z,328.77
2018-02-09T21:32:41.856Z,350.20
2018-02-09T21:35:09.414Z,341.03
2018-02-09T21:37:36.946Z,387.93
2018-02-09T21:40:05.262Z,376.63
2018-02-09T21:42:32.813Z,362.90
2018-02-09T21:45:00.340Z,318.70
2018-02-09T21:47:28.658Z,353.60
2018-02-09T21:49:56.302Z,346.57
2018-02-09T21:52:24.612Z,331.47
2018-02-09T21:54:52.182Z,320.07
2018-02-09T21:57:19.829Z,311.37
2018-02-09T21:59:47.358Z,304.60
2018-02-09T22:02:14.952Z,308.20
2018-02-09T22:04:42.543Z,297.57
2018-02-09T22:07:10.069Z,299.20
2018-02-09T22:09:38.376Z,291.87
2018-02-09T22:12:06.054Z,260.00
2018-02-09T22:14:33.600Z,269.10
2018-02-09T22:17:01.149Z,255.43
2018-02-09T22:19:28.839Z,246.63
2018-02-09T22:21:56.412Z,235.10
2018-02-09T22:24:23.937Z,246.23
2018-02-09T22:26:52.363Z,253.67
2018-02-09T22:29:19.872Z,262.50
2018-02-09T22:31:48.172Z,266.87
2018-02-09T22:34:15.750Z,249.40
2018-02-09T22:36:43.286Z,246.33
2018-02-09T22:39:11.583Z,243.27
2018-02-09T22:41:39.128Z,238.73
2018-02-09T22:44:07.445Z,243.83
2018-02-09T22:46:34.981Z,234.10
2018-02-09T22:49:03.291Z,229.10
2018-02-09T22:51:30.835Z,218.80
2018-02-09T22:53:58.380Z,226.07
2018-02-09T22:56:26.688Z,221.80
2018-02-09T22:58:54.198Z,215.93
2018-02-09T23:01:21.716Z,216.00
2018-02-09T23:03:49.262Z,210.43
2018-02-09T23:06:17.543Z,213.13
2018-02-09T23:08:45.955Z,219.17
2018-02-09T23:11:13.500Z,214.53
2018-02-09T23:13:41.064Z,227.97
2018-02-09T23:16:08.608Z,232.57
2018-02-09T23:18:36.890Z,234.97
2018-02-09T23:21:05.180Z,243.33
2018-02-09T23:23:33.598Z,244.47
2018-02-09T23:26:01.132Z,238.50
2018-02-09T23:28:28.684Z,251.70
2018-02-09T23:30:57.002Z,234.70
2018-02-09T23:33:24.524Z,232.17
2018-02-09T23:35:52.802Z,230.63
2018-02-09T23:38:21.100Z,246.60
2018-02-09T23:40:48.614Z,253.73
2018-02-09T23:43:16.139Z,244.03
2018-02-09T23:45:43.677Z,224.47
2018-02-09T23:48:11.971Z,237.20
2018-02-09T23:50:39.512Z,230.63
2018-02-09T23:53:07.044Z,236.90
2018-02-09T23:55:34.569Z,239.40
2018-02-09T23:58:02.075Z,228.43
